sensor_id;sensor_type;location;lat;lon;timestamp;P1;durP1;ratioP1;P2;durP2;ratioP2
75371;SDS011;63956;52.006;5.878;2022-12-11T00:01:51;32.15;;;12.60;;
75371;SDS011;63956;52.006;5.878;2022-12-11T00:04:21;35.85;;;12.48;;
75371;SDS011;63956;52.006;5.878;2022-12-11T00:06:52;43.85;;;13.05;;
75371;SDS011;63956;52.006;5.878;2022-12-11T00:09:22;48.65;;;13.40;;
75371;SDS011;63956;52.006;5.878;2022-12-11T00:11:51;34.97;;;11.80;;
75371;SDS011;63956;52.006;5.878;2022-12-11T00:14:20;34.83;;;11.73;;
75371;SDS011;63956;52.006;5.878;2022-12-11T00:16:49;32.70;;;11.38;;
75371;SDS011;63956;52.006;5.878;2022-12-11T00:19:18;36.85;;;11.27;;
75371;SDS011;63956;52.006;5.878;2022-12-11T00:21:47;28.85;;;9.48;;
75371;SDS011;63956;52.006;5.878;2022-12-11T00:24:19;27.30;;;10.55;;
75371;SDS011;63956;52.006;5.878;2022-12-11T00:26:48;35.33;;;12.07;;
75371;SDS011;63956;52.006;5.878;2022-12-11T00:29:17;34.65;;;12.27;;
75371;SDS011;63956;52.006;5.878;2022-12-11T00:31:46;46.03;;;13.88;;
75371;SDS011;63956;52.006;5.878;2022-12-11T00:34:16;47.63;;;15.48;;
75371;SDS011;63956;52.006;5.878;2022-12-11T00:36:45;36.83;;;12.93;;
75371;SDS011;63956;52.006;5.878;2022-12-11T00:39:14;33.83;;;10.18;;
75371;SDS011;63956;52.006;5.878;2022-12-11T00:41:45;21.17;;;6.85;;
75371;SDS011;63956;52.006;5.878;2022-12-11T00:44:15;36.88;;;13.32;;
75371;SDS011;63956;52.006;5.878;2022-12-11T00:46:44;47.60;;;15.15;;
75371;SDS011;63956;52.006;5.878;2022-12-11T00:49:13;39.47;;;12.73;;
75371;SDS011;63956;52.006;5.878;2022-12-11T00:51:42;44.03;;;16.58;;
75371;SDS011;63956;52.006;5.878;2022-12-11T00:54:11;39.70;;;11.80;;
75371;SDS011;63956;52.006;5.878;2022-12-11T00:56:40;31.55;;;12.27;;
75371;SDS011;63956;52.006;5.878;2022-12-11T01:01:41;28.20;;;10.95;;
75371;SDS011;63956;52.006;5.878;2022-12-11T01:04:10;31.63;;;11.40;;
75371;SDS011;63956;52.006;5.878;2022-12-11T01:06:39;33.90;;;13.20;;
75371;SDS011;63956;52.006;5.878;2022-12-11T01:09:08;28.42;;;11.27;;
75371;SDS011;63956;52.006;5.878;2022-12-11T01:11:50;24.17;;;9.10;;
75371;SDS011;63956;52.006;5.878;2022-12-11T01:14:22;38.13;;;15.32;;
75371;SDS011;63956;52.006;5.878;2022-12-11T01:16:51;47.42;;;15.77;;
75371;SDS011;63956;52.006;5.878;2022-12-11T01:21:49;37.28;;;11.95;;
75371;SDS011;63956;52.006;5.878;2022-12-11T01:24:19;30.40;;;12.13;;
75371;SDS011;63956;52.006;5.878;2022-12-11T01:26:48;38.15;;;12.25;;
75371;SDS011;63956;52.006;5.878;2022-12-11T01:29:17;35.88;;;12.98;;
75371;SDS011;63956;52.006;5.878;2022-12-11T01:31:48;41.60;;;13.65;;
75371;SDS011;63956;52.006;5.878;2022-12-11T01:34:18;40.30;;;13.68;;
75371;SDS011;63956;52.006;5.878;2022-12-11T01:36:47;41.22;;;14.65;;
75371;SDS011;63956;52.006;5.878;2022-12-11T01:39:16;42.80;;;13.43;;
75371;SDS011;63956;52.006;5.878;2022-12-11T01:41:45;38.67;;;12.27;;
75371;SDS011;63956;52.006;5.878;2022-12-11T01:47:22;30.73;;;11.85;;
75371;SDS011;63956;52.006;5.878;2022-12-11T01:49:51;28.15;;;11.75;;
75371;SDS011;63956;52.006;5.878;2022-12-11T01:52:20;40.83;;;13.65;;
75371;SDS011;63956;52.006;5.878;2022-12-11T01:54:50;37.90;;;12.85;;
75371;SDS011;63956;52.006;5.878;2022-12-11T01:57:19;23.88;;;8.50;;
75371;SDS011;63956;52.006;5.878;2022-12-11T01:59:48;29.55;;;9.63;;
75371;SDS011;63956;52.006;5.878;2022-12-11T02:02:18;45.20;;;14.25;;
75371;SDS011;63956;52.006;5.878;2022-12-11T02:04:53;26.40;;;9.23;;
75371;SDS011;63956;52.006;5.878;2022-12-11T02:07:22;45.05;;;14.70;;
75371;SDS011;63956;52.006;5.878;2022-12-11T02:12:22;41.15;;;13.77;;
75371;SDS011;63956;52.006;5.878;2022-12-11T02:14:56;37.40;;;13.23;;
75371;SDS011;63956;52.006;5.878;2022-12-11T02:17:34;46.45;;;14.38;;
75371;SDS011;63956;52.006;5.878;2022-12-11T02:20:09;41.83;;;13.15;;
75371;SDS011;63956;52.006;5.878;2022-12-11T02:22:49;46.30;;;14.75;;
75371;SDS011;63956;52.006;5.878;2022-12-11T02:25:31;24.15;;;8.57;;
75371;SDS011;63956;52.006;5.878;2022-12-11T02:28:16;18.27;;;7.53;;
75371;SDS011;63956;52.006;5.878;2022-12-11T02:30:49;45.35;;;14.20;;
75371;SDS011;63956;52.006;5.878;2022-12-11T02:33:31;34.72;;;10.40;;
75371;SDS011;63956;52.006;5.878;2022-12-11T02:36:05;27.75;;;10.60;;
75371;SDS011;63956;52.006;5.878;2022-12-11T02:38:38;59.45;;;12.82;;
75371;SDS011;63956;52.006;5.878;2022-12-11T02:41:15;54.05;;;12.88;;
75371;SDS011;63956;52.006;5.878;2022-12-11T02:43:49;30.58;;;9.77;;
75371;SDS011;63956;52.006;5.878;2022-12-11T02:46:20;25.98;;;9.18;;
75371;SDS011;63956;52.006;5.878;2022-12-11T02:48:50;40.58;;;11.00;;
75371;SDS011;63956;52.006;5.878;2022-12-11T02:51:23;34.05;;;12.32;;
75371;SDS011;63956;52.006;5.878;2022-12-11T02:53:55;51.35;;;14.73;;
75371;SDS011;63956;52.006;5.878;2022-12-11T02:56:28;53.95;;;13.95;;
75371;SDS011;63956;52.006;5.878;2022-12-11T02:59:05;41.15;;;13.30;;
75371;SDS011;63956;52.006;5.878;2022-12-11T03:01:38;38.72;;;13.10;;
75371;SDS011;63956;52.006;5.878;2022-12-11T03:04:08;58.90;;;14.27;;
75371;SDS011;63956;52.006;5.878;2022-12-11T03:09:09;38.65;;;14.05;;
75371;SDS011;63956;52.006;5.878;2022-12-11T03:11:38;38.53;;;9.82;;
75371;SDS011;63956;52.006;5.878;2022-12-11T03:14:10;46.47;;;13.90;;
75371;SDS011;63956;52.006;5.878;2022-12-11T03:16:40;38.60;;;13.07;;
75371;SDS011;63956;52.006;5.878;2022-12-11T03:19:17;44.85;;;13.23;;
75371;SDS011;63956;52.006;5.878;2022-12-11T03:21:56;37.45;;;12.55;;
75371;SDS011;63956;52.006;5.878;2022-12-11T03:27:05;45.25;;;12.02;;
75371;SDS011;63956;52.006;5.878;2022-12-11T03:29:45;35.45;;;12.60;;
75371;SDS011;63956;52.006;5.878;2022-12-11T03:32:23;40.80;;;12.32;;
75371;SDS011;63956;52.006;5.878;2022-12-11T03:34:56;52.20;;;13.95;;
75371;SDS011;63956;52.006;5.878;2022-12-11T03:37:32;44.40;;;14.77;;
75371;SDS011;63956;52.006;5.878;2022-12-11T03:40:05;45.22;;;14.95;;
75371;SDS011;63956;52.006;5.878;2022-12-11T03:42:38;38.60;;;13.05;;
75371;SDS011;63956;52.006;5.878;2022-12-11T03:45:12;51.38;;;15.82;;
75371;SDS011;63956;52.006;5.878;2022-12-11T03:47:42;42.70;;;15.23;;
75371;SDS011;63956;52.006;5.878;2022-12-11T03:50:13;49.28;;;13.43;;
75371;SDS011;63956;52.006;5.878;2022-12-11T03:52:45;42.15;;;13.43;;
75371;SDS011;63956;52.006;5.878;2022-12-11T03:55:16;28.15;;;8.07;;
75371;SDS011;63956;52.006;5.878;2022-12-11T03:57:46;27.35;;;10.75;;
75371;SDS011;63956;52.006;5.878;2022-12-11T04:00:19;25.27;;;9.82;;
75371;SDS011;63956;52.006;5.878;2022-12-11T04:02:49;39.60;;;13.82;;
75371;SDS011;63956;52.006;5.878;2022-12-11T04:05:30;34.78;;;10.98;;
75371;SDS011;63956;52.006;5.878;2022-12-11T04:07:59;28.08;;;9.05;;
75371;SDS011;63956;52.006;5.878;2022-12-11T04:10:28;49.08;;;14.88;;
75371;SDS011;63956;52.006;5.878;2022-12-11T04:15:29;28.85;;;12.23;;
75371;SDS011;63956;52.006;5.878;2022-12-11T04:17:55;50.08;;;15.95;;
75371;SDS011;63956;52.006;5.878;2022-12-11T04:20:37;37.22;;;13.70;;
75371;SDS011;63956;52.006;5.878;2022-12-11T04:23:18;53.72;;;17.15;;
75371;SDS011;63956;52.006;5.878;2022-12-11T04:26:02;38.78;;;12.00;;
75371;SDS011;63956;52.006;5.878;2022-12-11T04:28:32;39.45;;;13.30;;
75371;SDS011;63956;52.006;5.878;2022-12-11T04:31:04;38.85;;;12.77;;
75371;SDS011;63956;52.006;5.878;2022-12-11T04:33:34;49.13;;;16.80;;
75371;SDS011;63956;52.006;5.878;2022-12-11T04:36:03;49.30;;;18.15;;
75371;SDS011;63956;52.006;5.878;2022-12-11T04:38:33;37.63;;;12.45;;
75371;SDS011;63956;52.006;5.878;2022-12-11T04:41:04;33.60;;;10.23;;
75371;SDS011;63956;52.006;5.878;2022-12-11T04:43:34;40.33;;;14.82;;
75371;SDS011;63956;52.006;5.878;2022-12-11T04:51:07;36.63;;;11.73;;
75371;SDS011;63956;52.006;5.878;2022-12-11T04:53:36;29.52;;;11.88;;
75371;SDS011;63956;52.006;5.878;2022-12-11T04:56:06;40.95;;;15.18;;
75371;SDS011;63956;52.006;5.878;2022-12-11T04:58:37;38.53;;;14.05;;
75371;SDS011;63956;52.006;5.878;2022-12-11T05:01:10;26.00;;;12.05;;
75371;SDS011;63956;52.006;5.878;2022-12-11T05:03:41;39.63;;;13.95;;
75371;SDS011;63956;52.006;5.878;2022-12-11T05:06:10;36.58;;;11.95;;
75371;SDS011;63956;52.006;5.878;2022-12-11T05:08:41;27.90;;;10.05;;
75371;SDS011;63956;52.006;5.878;2022-12-11T05:11:11;22.15;;;6.88;;
75371;SDS011;63956;52.006;5.878;2022-12-11T05:13:42;35.42;;;13.57;;
75371;SDS011;63956;52.006;5.878;2022-12-11T05:16:15;42.30;;;16.00;;
75371;SDS011;63956;52.006;5.878;2022-12-11T05:18:44;40.80;;;15.05;;
75371;SDS011;63956;52.006;5.878;2022-12-11T05:21:14;31.98;;;12.70;;
75371;SDS011;63956;52.006;5.878;2022-12-11T05:23:43;41.03;;;13.88;;
75371;SDS011;63956;52.006;5.878;2022-12-11T05:26:13;39.92;;;12.48;;
75371;SDS011;63956;52.006;5.878;2022-12-11T05:28:44;17.15;;;8.48;;
75371;SDS011;63956;52.006;5.878;2022-12-11T05:31:17;38.40;;;14.00;;
75371;SDS011;63956;52.006;5.878;2022-12-11T05:33:48;26.25;;;11.02;;
75371;SDS011;63956;52.006;5.878;2022-12-11T05:36:18;27.75;;;11.85;;
75371;SDS011;63956;52.006;5.878;2022-12-11T05:38:48;18.52;;;8.98;;
75371;SDS011;63956;52.006;5.878;2022-12-11T05:41:18;30.65;;;13.10;;
75371;SDS011;63956;52.006;5.878;2022-12-11T05:43:49;31.02;;;11.25;;
75371;SDS011;63956;52.006;5.878;2022-12-11T05:46:21;38.90;;;13.80;;
75371;SDS011;63956;52.006;5.878;2022-12-11T05:48:53;27.55;;;11.15;;
75371;SDS011;63956;52.006;5.878;2022-12-11T05:51:23;28.67;;;12.43;;
75371;SDS011;63956;52.006;5.878;2022-12-11T05:53:52;38.60;;;16.88;;
75371;SDS011;63956;52.006;5.878;2022-12-11T05:56:24;35.40;;;14.20;;
75371;SDS011;63956;52.006;5.878;2022-12-11T05:58:55;35.28;;;16.33;;
75371;SDS011;63956;52.006;5.878;2022-12-11T06:01:28;41.83;;;16.52;;
75371;SDS011;63956;52.006;5.878;2022-12-11T06:03:58;38.63;;;13.82;;
75371;SDS011;63956;52.006;5.878;2022-12-11T06:06:28;28.83;;;13.18;;
75371;SDS011;63956;52.006;5.878;2022-12-11T06:08:57;38.58;;;16.55;;
75371;SDS011;63956;52.006;5.878;2022-12-11T06:11:28;44.13;;;16.02;;
75371;SDS011;63956;52.006;5.878;2022-12-11T06:13:59;30.75;;;14.10;;
75371;SDS011;63956;52.006;5.878;2022-12-11T06:16:33;21.80;;;10.48;;
75371;SDS011;63956;52.006;5.878;2022-12-11T06:19:02;26.80;;;9.43;;
75371;SDS011;63956;52.006;5.878;2022-12-11T06:21:31;29.55;;;12.93;;
75371;SDS011;63956;52.006;5.878;2022-12-11T06:24:02;21.70;;;9.30;;
75371;SDS011;63956;52.006;5.878;2022-12-11T06:26:31;36.42;;;15.40;;
75371;SDS011;63956;52.006;5.878;2022-12-11T06:29:01;21.77;;;9.77;;
75371;SDS011;63956;52.006;5.878;2022-12-11T06:31:32;24.15;;;10.05;;
75371;SDS011;63956;52.006;5.878;2022-12-11T06:34:01;32.08;;;14.52;;
75371;SDS011;63956;52.006;5.878;2022-12-11T06:36:30;23.63;;;11.48;;
75371;SDS011;63956;52.006;5.878;2022-12-11T06:39:00;39.58;;;16.33;;
75371;SDS011;63956;52.006;5.878;2022-12-11T06:41:29;35.05;;;15.50;;
75371;SDS011;63956;52.006;5.878;2022-12-11T06:43:58;24.73;;;11.85;;
75371;SDS011;63956;52.006;5.878;2022-12-11T06:46:27;33.00;;;14.15;;
75371;SDS011;63956;52.006;5.878;2022-12-11T06:48:59;27.70;;;11.85;;
75371;SDS011;63956;52.006;5.878;2022-12-11T06:51:28;32.50;;;13.35;;
75371;SDS011;63956;52.006;5.878;2022-12-11T06:53:57;30.27;;;13.90;;
75371;SDS011;63956;52.006;5.878;2022-12-11T06:56:26;30.48;;;13.52;;
75371;SDS011;63956;52.006;5.878;2022-12-11T06:58:55;24.40;;;9.73;;
75371;SDS011;63956;52.006;5.878;2022-12-11T07:01:25;37.17;;;16.45;;
75371;SDS011;63956;52.006;5.878;2022-12-11T07:03:56;14.73;;;6.63;;
75371;SDS011;63956;52.006;5.878;2022-12-11T07:06:28;27.52;;;12.52;;
75371;SDS011;63956;52.006;5.878;2022-12-11T07:08:57;26.48;;;12.45;;
75371;SDS011;63956;52.006;5.878;2022-12-11T07:11:26;27.80;;;12.93;;
75371;SDS011;63956;52.006;5.878;2022-12-11T07:13:56;31.17;;;13.27;;
75371;SDS011;63956;52.006;5.878;2022-12-11T07:16:26;24.95;;;11.93;;
75371;SDS011;63956;52.006;5.878;2022-12-11T07:21:27;21.52;;;9.57;;
75371;SDS011;63956;52.006;5.878;2022-12-11T07:23:56;23.75;;;11.93;;
75371;SDS011;63956;52.006;5.878;2022-12-11T07:26:26;28.08;;;14.18;;
75371;SDS011;63956;52.006;5.878;2022-12-11T07:28:55;31.80;;;13.95;;
75371;SDS011;63956;52.006;5.878;2022-12-11T07:31:26;26.10;;;12.35;;
75371;SDS011;63956;52.006;5.878;2022-12-11T07:33:57;24.75;;;12.13;;
75371;SDS011;63956;52.006;5.878;2022-12-11T07:36:29;28.25;;;12.63;;
75371;SDS011;63956;52.006;5.878;2022-12-11T07:38:59;23.13;;;11.73;;
75371;SDS011;63956;52.006;5.878;2022-12-11T07:41:29;24.85;;;12.77;;
75371;SDS011;63956;52.006;5.878;2022-12-11T07:43:59;23.20;;;11.60;;
75371;SDS011;63956;52.006;5.878;2022-12-11T07:46:29;23.48;;;12.32;;
75371;SDS011;63956;52.006;5.878;2022-12-11T07:49:00;21.75;;;11.63;;
75371;SDS011;63956;52.006;5.878;2022-12-11T07:51:32;21.05;;;10.27;;
75371;SDS011;63956;52.006;5.878;2022-12-11T07:54:04;19.90;;;9.50;;
75371;SDS011;63956;52.006;5.878;2022-12-11T07:56:35;21.75;;;10.50;;
75371;SDS011;63956;52.006;5.878;2022-12-11T07:59:04;24.55;;;12.07;;
75371;SDS011;63956;52.006;5.878;2022-12-11T08:01:35;26.27;;;12.32;;
75371;SDS011;63956;52.006;5.878;2022-12-11T08:04:08;25.15;;;12.48;;
75371;SDS011;63956;52.006;5.878;2022-12-11T08:06:42;21.17;;;10.32;;
75371;SDS011;63956;52.006;5.878;2022-12-11T08:09:12;23.67;;;12.25;;
75371;SDS011;63956;52.006;5.878;2022-12-11T08:11:42;18.70;;;8.88;;
75371;SDS011;63956;52.006;5.878;2022-12-11T08:14:11;19.48;;;8.63;;
75371;SDS011;63956;52.006;5.878;2022-12-11T08:16:41;21.80;;;10.93;;
75371;SDS011;63956;52.006;5.878;2022-12-11T08:19:10;13.32;;;7.20;;
75371;SDS011;63956;52.006;5.878;2022-12-11T08:21:39;19.65;;;10.40;;
75371;SDS011;63956;52.006;5.878;2022-12-11T08:24:13;23.63;;;11.82;;
75371;SDS011;63956;52.006;5.878;2022-12-11T08:26:45;22.52;;;12.10;;
75371;SDS011;63956;52.006;5.878;2022-12-11T08:29:15;20.52;;;10.73;;
75371;SDS011;63956;52.006;5.878;2022-12-11T08:31:44;18.83;;;8.55;;
75371;SDS011;63956;52.006;5.878;2022-12-11T08:34:13;12.90;;;7.25;;
75371;SDS011;63956;52.006;5.878;2022-12-11T08:36:45;21.77;;;9.52;;
75371;SDS011;63956;52.006;5.878;2022-12-11T08:39:14;23.38;;;9.55;;
75371;SDS011;63956;52.006;5.878;2022-12-11T08:41:43;19.20;;;11.18;;
75371;SDS011;63956;52.006;5.878;2022-12-11T08:44:12;14.68;;;7.13;;
75371;SDS011;63956;52.006;5.878;2022-12-11T08:49:11;21.33;;;10.70;;
75371;SDS011;63956;52.006;5.878;2022-12-11T08:51:40;17.30;;;9.45;;
75371;SDS011;63956;52.006;5.878;2022-12-11T08:54:12;19.50;;;8.52;;
75371;SDS011;63956;52.006;5.878;2022-12-11T08:56:41;16.65;;;8.00;;
75371;SDS011;63956;52.006;5.878;2022-12-11T08:59:10;15.68;;;6.63;;
75371;SDS011;63956;52.006;5.878;2022-12-11T09:01:39;19.63;;;10.68;;
75371;SDS011;63956;52.006;5.878;2022-12-11T09:04:08;15.35;;;7.75;;
75371;SDS011;63956;52.006;5.878;2022-12-11T09:06:37;12.05;;;6.78;;
75371;SDS011;63956;52.006;5.878;2022-12-11T09:11:38;15.68;;;8.77;;
75371;SDS011;63956;52.006;5.878;2022-12-11T09:14:07;16.67;;;8.00;;
75371;SDS011;63956;52.006;5.878;2022-12-11T09:16:37;16.02;;;8.05;;
75371;SDS011;63956;52.006;5.878;2022-12-11T09:19:09;7.65;;;4.13;;
75371;SDS011;63956;52.006;5.878;2022-12-11T09:21:40;14.48;;;7.60;;
75371;SDS011;63956;52.006;5.878;2022-12-11T09:24:11;13.60;;;7.05;;
75371;SDS011;63956;52.006;5.878;2022-12-11T09:26:43;8.27;;;4.63;;
75371;SDS011;63956;52.006;5.878;2022-12-11T09:29:12;20.10;;;9.18;;
75371;SDS011;63956;52.006;5.878;2022-12-11T09:31:41;11.90;;;5.00;;
75371;SDS011;63956;52.006;5.878;2022-12-11T09:34:11;18.75;;;8.38;;
75371;SDS011;63956;52.006;5.878;2022-12-11T09:36:41;12.75;;;7.43;;
75371;SDS011;63956;52.006;5.878;2022-12-11T09:39:12;10.07;;;5.43;;
75371;SDS011;63956;52.006;5.878;2022-12-11T09:41:50;18.02;;;10.50;;
75371;SDS011;63956;52.006;5.878;2022-12-11T09:44:27;19.17;;;9.77;;
75371;SDS011;63956;52.006;5.878;2022-12-11T09:47:00;16.08;;;9.23;;
75371;SDS011;63956;52.006;5.878;2022-12-11T09:49:32;18.88;;;9.07;;
75371;SDS011;63956;52.006;5.878;2022-12-11T09:52:07;21.00;;;9.63;;
75371;SDS011;63956;52.006;5.878;2022-12-11T09:54:41;18.95;;;9.20;;
75371;SDS011;63956;52.006;5.878;2022-12-11T09:57:19;21.85;;;10.13;;
75371;SDS011;63956;52.006;5.878;2022-12-11T10:00:13;19.67;;;10.52;;
75371;SDS011;63956;52.006;5.878;2022-12-11T10:05:43;11.90;;;6.15;;
75371;SDS011;63956;52.006;5.878;2022-12-11T10:08:19;13.40;;;6.82;;
75371;SDS011;63956;52.006;5.878;2022-12-11T10:10:56;9.57;;;6.50;;
75371;SDS011;63956;52.006;5.878;2022-12-11T10:13:38;19.08;;;9.48;;
75371;SDS011;63956;52.006;5.878;2022-12-11T10:16:17;16.02;;;8.63;;
75371;SDS011;63956;52.006;5.878;2022-12-11T10:18:56;13.20;;;6.65;;
75371;SDS011;63956;52.006;5.878;2022-12-11T10:21:25;15.48;;;8.13;;
75371;SDS011;63956;52.006;5.878;2022-12-11T10:26:32;8.98;;;5.15;;
75371;SDS011;63956;52.006;5.878;2022-12-11T10:29:04;18.27;;;10.30;;
75371;SDS011;63956;52.006;5.878;2022-12-11T10:31:41;13.68;;;7.82;;
75371;SDS011;63956;52.006;5.878;2022-12-11T10:34:18;18.88;;;10.48;;
75371;SDS011;63956;52.006;5.878;2022-12-11T10:36:56;22.13;;;10.93;;
75371;SDS011;63956;52.006;5.878;2022-12-11T10:39:25;12.52;;;6.82;;
75371;SDS011;63956;52.006;5.878;2022-12-11T10:41:55;17.25;;;9.82;;
75371;SDS011;63956;52.006;5.878;2022-12-11T10:44:28;12.27;;;6.63;;
75371;SDS011;63956;52.006;5.878;2022-12-11T10:47:02;19.73;;;9.48;;
75371;SDS011;63956;52.006;5.878;2022-12-11T10:49:33;12.07;;;7.10;;
75371;SDS011;63956;52.006;5.878;2022-12-11T10:52:08;14.75;;;7.00;;
75371;SDS011;63956;52.006;5.878;2022-12-11T10:54:39;15.63;;;7.53;;
75371;SDS011;63956;52.006;5.878;2022-12-11T10:57:13;20.20;;;10.55;;
75371;SDS011;63956;52.006;5.878;2022-12-11T10:59:46;20.67;;;9.30;;
75371;SDS011;63956;52.006;5.878;2022-12-11T11:02:18;16.92;;;8.40;;
75371;SDS011;63956;52.006;5.878;2022-12-11T11:04:50;16.65;;;8.43;;
75371;SDS011;63956;52.006;5.878;2022-12-11T11:07:21;19.08;;;10.43;;
75371;SDS011;63956;52.006;5.878;2022-12-11T11:10:02;18.70;;;9.68;;
75371;SDS011;63956;52.006;5.878;2022-12-11T11:12:36;15.18;;;7.47;;
75371;SDS011;63956;52.006;5.878;2022-12-11T11:15:09;13.48;;;6.65;;
75371;SDS011;63956;52.006;5.878;2022-12-11T11:17:41;21.30;;;11.05;;
75371;SDS011;63956;52.006;5.878;2022-12-11T11:20:14;11.50;;;6.10;;
75371;SDS011;63956;52.006;5.878;2022-12-11T11:22:46;9.30;;;5.25;;
75371;SDS011;63956;52.006;5.878;2022-12-11T11:25:19;12.57;;;7.28;;
75371;SDS011;63956;52.006;5.878;2022-12-11T11:27:50;15.38;;;10.63;;
75371;SDS011;63956;52.006;5.878;2022-12-11T11:30:25;15.15;;;8.40;;
75371;SDS011;63956;52.006;5.878;2022-12-11T11:32:57;15.23;;;8.60;;
75371;SDS011;63956;52.006;5.878;2022-12-11T11:35:28;18.38;;;8.93;;
75371;SDS011;63956;52.006;5.878;2022-12-11T11:38:01;15.93;;;8.90;;
75371;SDS011;63956;52.006;5.878;2022-12-11T11:40:35;13.68;;;7.25;;
75371;SDS011;63956;52.006;5.878;2022-12-11T11:43:12;23.55;;;12.38;;
75371;SDS011;63956;52.006;5.878;2022-12-11T11:45:52;17.17;;;8.60;;
75371;SDS011;63956;52.006;5.878;2022-12-11T11:48:30;18.15;;;10.20;;
75371;SDS011;63956;52.006;5.878;2022-12-11T11:51:06;21.95;;;10.90;;
75371;SDS011;63956;52.006;5.878;2022-12-11T11:53:42;20.60;;;10.82;;
75371;SDS011;63956;52.006;5.878;2022-12-11T11:56:17;21.33;;;11.10;;
75371;SDS011;63956;52.006;5.878;2022-12-11T11:58:58;22.50;;;11.32;;
75371;SDS011;63956;52.006;5.878;2022-12-11T12:01:33;27.48;;;13.23;;
75371;SDS011;63956;52.006;5.878;2022-12-11T12:04:02;19.63;;;10.15;;
75371;SDS011;63956;52.006;5.878;2022-12-11T12:06:39;20.42;;;11.23;;
75371;SDS011;63956;52.006;5.878;2022-12-11T12:11:52;14.20;;;7.97;;
75371;SDS011;63956;52.006;5.878;2022-12-11T12:14:34;20.63;;;10.68;;
75371;SDS011;63956;52.006;5.878;2022-12-11T12:17:24;23.08;;;11.27;;
75371;SDS011;63956;52.006;5.878;2022-12-11T12:20:03;21.52;;;11.80;;
75371;SDS011;63956;52.006;5.878;2022-12-11T12:22:51;20.35;;;10.13;;
75371;SDS011;63956;52.006;5.878;2022-12-11T12:25:28;18.60;;;9.52;;
75371;SDS011;63956;52.006;5.878;2022-12-11T12:28:06;18.15;;;9.57;;
75371;SDS011;63956;52.006;5.878;2022-12-11T12:30:47;16.33;;;7.78;;
75371;SDS011;63956;52.006;5.878;2022-12-11T12:33:32;15.80;;;8.88;;
75371;SDS011;63956;52.006;5.878;2022-12-11T12:36:14;18.45;;;10.65;;
75371;SDS011;63956;52.006;5.878;2022-12-11T12:38:52;21.80;;;11.75;;
75371;SDS011;63956;52.006;5.878;2022-12-11T12:41:23;21.55;;;11.95;;
75371;SDS011;63956;52.006;5.878;2022-12-11T12:46:54;18.63;;;8.18;;
75371;SDS011;63956;52.006;5.878;2022-12-11T12:49:31;16.42;;;10.10;;
75371;SDS011;63956;52.006;5.878;2022-12-11T12:52:05;23.27;;;11.68;;
75371;SDS011;63956;52.006;5.878;2022-12-11T12:54:39;14.82;;;6.50;;
75371;SDS011;63956;52.006;5.878;2022-12-11T12:57:29;14.98;;;5.85;;
75371;SDS011;63956;52.006;5.878;2022-12-11T13:00:00;24.23;;;12.23;;
75371;SDS011;63956;52.006;5.878;2022-12-11T13:02:30;21.25;;;10.93;;
75371;SDS011;63956;52.006;5.878;2022-12-11T13:05:05;19.63;;;9.52;;
75371;SDS011;63956;52.006;5.878;2022-12-11T13:07:47;19.30;;;10.07;;
75371;SDS011;63956;52.006;5.878;2022-12-11T13:10:24;22.77;;;11.50;;
75371;SDS011;63956;52.006;5.878;2022-12-11T13:12:56;20.80;;;11.13;;
75371;SDS011;63956;52.006;5.878;2022-12-11T13:15:27;15.10;;;7.60;;
75371;SDS011;63956;52.006;5.878;2022-12-11T13:17:59;15.20;;;7.68;;
75371;SDS011;63956;52.006;5.878;2022-12-11T13:20:32;13.82;;;6.68;;
75371;SDS011;63956;52.006;5.878;2022-12-11T13:23:19;21.95;;;10.50;;
75371;SDS011;63956;52.006;5.878;2022-12-11T13:25:56;19.08;;;10.32;;
75371;SDS011;63956;52.006;5.878;2022-12-11T13:28:29;15.93;;;8.75;;
75371;SDS011;63956;52.006;5.878;2022-12-11T13:31:19;17.30;;;8.65;;
75371;SDS011;63956;52.006;5.878;2022-12-11T13:33:55;20.55;;;7.82;;
75371;SDS011;63956;52.006;5.878;2022-12-11T13:36:30;22.98;;;11.63;;
75371;SDS011;63956;52.006;5.878;2022-12-11T13:39:03;18.20;;;11.15;;
75371;SDS011;63956;52.006;5.878;2022-12-11T13:41:35;24.20;;;12.82;;
75371;SDS011;63956;52.006;5.878;2022-12-11T13:44:05;12.88;;;6.20;;
75371;SDS011;63956;52.006;5.878;2022-12-11T13:46:35;19.63;;;8.50;;
75371;SDS011;63956;52.006;5.878;2022-12-11T13:49:07;17.95;;;9.27;;
75371;SDS011;63956;52.006;5.878;2022-12-11T13:51:57;21.05;;;11.35;;
75371;SDS011;63956;52.006;5.878;2022-12-11T13:54:27;26.45;;;11.63;;
75371;SDS011;63956;52.006;5.878;2022-12-11T13:57:01;18.23;;;9.38;;
75371;SDS011;63956;52.006;5.878;2022-12-11T13:59:41;28.27;;;15.43;;
75371;SDS011;63956;52.006;5.878;2022-12-11T14:02:17;21.65;;;12.52;;
75371;SDS011;63956;52.006;5.878;2022-12-11T14:04:50;26.50;;;13.98;;
75371;SDS011;63956;52.006;5.878;2022-12-11T14:07:25;22.98;;;12.75;;
75371;SDS011;63956;52.006;5.878;2022-12-11T14:09:58;14.60;;;5.95;;
75371;SDS011;63956;52.006;5.878;2022-12-11T14:12:30;15.85;;;6.78;;
75371;SDS011;63956;52.006;5.878;2022-12-11T14:15:00;16.55;;;7.35;;
75371;SDS011;63956;52.006;5.878;2022-12-11T14:17:32;13.95;;;7.68;;
75371;SDS011;63956;52.006;5.878;2022-12-11T14:20:03;23.77;;;13.30;;
75371;SDS011;63956;52.006;5.878;2022-12-11T14:22:37;19.98;;;10.45;;
75371;SDS011;63956;52.006;5.878;2022-12-11T14:25:15;8.55;;;4.43;;
75371;SDS011;63956;52.006;5.878;2022-12-11T14:27:50;18.02;;;9.60;;
75371;SDS011;63956;52.006;5.878;2022-12-11T14:30:22;16.27;;;8.68;;
75371;SDS011;63956;52.006;5.878;2022-12-11T14:32:52;13.80;;;7.35;;
75371;SDS011;63956;52.006;5.878;2022-12-11T14:35:25;20.55;;;10.60;;
75371;SDS011;63956;52.006;5.878;2022-12-11T14:38:00;18.08;;;8.82;;
75371;SDS011;63956;52.006;5.878;2022-12-11T14:40:34;15.70;;;8.05;;
75371;SDS011;63956;52.006;5.878;2022-12-11T14:43:10;15.02;;;7.43;;
75371;SDS011;63956;52.006;5.878;2022-12-11T14:45:43;19.60;;;10.45;;
75371;SDS011;63956;52.006;5.878;2022-12-11T14:48:17;17.75;;;9.05;;
75371;SDS011;63956;52.006;5.878;2022-12-11T14:50:51;20.75;;;11.77;;
75371;SDS011;63956;52.006;5.878;2022-12-11T14:53:27;20.27;;;10.32;;
75371;SDS011;63956;52.006;5.878;2022-12-11T14:56:02;20.42;;;10.55;;
75371;SDS011;63956;52.006;5.878;2022-12-11T14:58:36;23.42;;;11.75;;
75371;SDS011;63956;52.006;5.878;2022-12-11T15:03:49;21.70;;;12.60;;
75371;SDS011;63956;52.006;5.878;2022-12-11T15:06:30;23.38;;;13.48;;
75371;SDS011;63956;52.006;5.878;2022-12-11T15:09:18;14.18;;;8.52;;
75371;SDS011;63956;52.006;5.878;2022-12-11T15:11:48;23.42;;;12.93;;
75371;SDS011;63956;52.006;5.878;2022-12-11T15:14:18;22.15;;;11.35;;
75371;SDS011;63956;52.006;5.878;2022-12-11T15:16:49;15.98;;;9.30;;
75371;SDS011;63956;52.006;5.878;2022-12-11T15:19:21;20.65;;;8.48;;
75371;SDS011;63956;52.006;5.878;2022-12-11T15:21:54;12.73;;;6.85;;
75371;SDS011;63956;52.006;5.878;2022-12-11T15:24:34;17.40;;;8.38;;
75371;SDS011;63956;52.006;5.878;2022-12-11T15:27:21;14.32;;;8.68;;
75371;SDS011;63956;52.006;5.878;2022-12-11T15:29:53;19.73;;;10.45;;
75371;SDS011;63956;52.006;5.878;2022-12-11T15:32:22;20.70;;;11.02;;
75371;SDS011;63956;52.006;5.878;2022-12-11T15:34:52;11.57;;;6.80;;
75371;SDS011;63956;52.006;5.878;2022-12-11T15:37:23;14.23;;;7.63;;
75371;SDS011;63956;52.006;5.878;2022-12-11T15:39:57;17.45;;;9.63;;
75371;SDS011;63956;52.006;5.878;2022-12-11T15:42:28;23.25;;;11.45;;